Tokuyo Maru No.17 — JD4156 — position and weather

sailwx.info

Track history (hours):
 
Tides and Currents Weather Stations Pressure Air Temp Water Temp Dewpoint Dewpoint Depression Visibility Wind Speed Wind Dir Waves Ship Positions

Tokuyo Maru No.17

Last reported at 2017-Nov-23 15:01 UTC. Time now 2017-Nov-23 15:21 UTC.
Position N 35°29' E 139°56'.

Length 67 m; draft 4.5 m.

Type: Tanker. MMSI: 431009496.

Date/timePositionNaut miles runAvg speedWind from/ knotsBaromVisibWave heightAir tempDewpointWater temp
2017-Nov-23 15:01N 35°29' E 139°56'0 0.0
2017-Nov-23 14:31N 35°29' E 139°56'0 0.0
2017-Nov-23 14:00N 35°29' E 139°56'0 0.0
2017-Nov-23 13:30N 35°29' E 139°56'0 0.0
2017-Nov-23 13:00N 35°29' E 139°56'0 0.0
2017-Nov-23 12:30N 35°29' E 139°56'0 0.0
2017-Nov-23 12:00N 35°29' E 139°56'0 0.0
2017-Nov-23 11:30N 35°29' E 139°56'0 0.0
2017-Nov-23 11:01N 35°29' E 139°56'0 0.0
2017-Nov-23 10:30N 35°29' E 139°56'0 0.0
2017-Nov-23 10:01N 35°29' E 139°56'0 0.0
2017-Nov-23 09:31N 35°29' E 139°56'0 0.1
2017-Nov-23 09:00N 35°29' E 139°56'0 0.0
2017-Nov-23 08:30N 35°29' E 139°56'0 0.0
2017-Nov-23 08:00N 35°29' E 139°56'0 0.0
2017-Nov-23 07:30N 35°29' E 139°56'0 0.1
2017-Nov-23 06:36N 35°29' E 139°56'0 0.3
2017-Nov-23 06:26N 35°29' E 139°56'0 0.0
2017-Nov-23 06:00N 35°29' E 139°56'0 0.0
2017-Nov-23 05:30N 35°29' E 139°56'0 0.0
2017-Nov-23 05:00N 35°29' E 139°56'0 0.0
2017-Nov-23 04:30N 35°29' E 139°56'0 0.0
2017-Nov-23 04:00N 35°29' E 139°56'0 0.0
2017-Nov-23 03:30N 35°29' E 139°56'0 0.0
2017-Nov-23 02:58N 35°29' E 139°56'0 0.1
2017-Nov-23 02:31N 35°29' E 139°56'0 0.0
2017-Nov-23 02:00N 35°29' E 139°56'0 0.1
2017-Nov-23 01:24N 35°29' E 139°56'0 0.0
2017-Nov-23 01:01N 35°29' E 139°56'0 0.0
2017-Nov-23 00:31N 35°29' E 139°56'0 0.0
2017-Nov-23 00:01N 35°29' E 139°56'0 0.0
2017-Nov-22 23:31N 35°29' E 139°56'0 0.0
2017-Nov-22 23:00N 35°29' E 139°56'0 0.0
2017-Nov-22 22:30N 35°29' E 139°56'0 0.0
2017-Nov-22 22:00N 35°29' E 139°56'0 0.0
2017-Nov-22 21:30N 35°29' E 139°56'0 0.0
2017-Nov-22 21:01N 35°29' E 139°56'0 0.0
2017-Nov-22 20:30N 35°29' E 139°56'0 0.0
2017-Nov-22 20:00N 35°29' E 139°56'0 0.0
2017-Nov-22 19:30N 35°29' E 139°56'  
2017-Nov-20 00:28N 35°29' E 140°01'0 0.0
2017-Nov-19 23:59N 35°29' E 140°01'0 0.1
2017-Nov-19 23:30N 35°29' E 140°01'3 5.7
2017-Nov-19 23:00N 35°29' E 139°57'2 3.1
2017-Nov-19 22:30N 35°29' E 139°56'0 0.0
2017-Nov-19 22:00N 35°29' E 139°56'0 0.0
2017-Nov-19 21:30N 35°29' E 139°56'0 0.0
2017-Nov-19 21:00N 35°29' E 139°56'0 0.0
2017-Nov-19 20:30N 35°29' E 139°56'0 0.0
2017-Nov-19 20:00N 35°29' E 139°56'0 0.0
2017-Nov-19 19:30N 35°29' E 139°56'0 0.0
2017-Nov-19 19:00N 35°29' E 139°56'0 0.0
2017-Nov-19 18:30N 35°29' E 139°56'0 0.0
2017-Nov-19 18:00N 35°29' E 139°56'0 0.0
2017-Nov-19 17:30N 35°29' E 139°56'0 0.0
2017-Nov-19 17:00N 35°29' E 139°56'0 0.0
2017-Nov-19 16:30N 35°29' E 139°56'0 0.1
2017-Nov-19 16:00N 35°29' E 139°56'0 0.1
2017-Nov-19 15:30N 35°29' E 139°56'0 0.0
2017-Nov-19 15:00N 35°29' E 139°56'3 6.6
2017-Nov-19 14:30N 35°28' E 139°52'611.8
2017-Nov-19 14:00N 35°24' E 139°46'611.5
2017-Nov-19 13:30N 35°19' E 139°44'510.6
2017-Nov-19 13:00N 35°14' E 139°47'510.6
2017-Nov-19 12:30N 35°09' E 139°46'611.5
2017-Nov-19 12:00N 35°03' E 139°45'611.2
2017-Nov-19 11:30N 34°58' E 139°44'611.0
2017-Nov-19 10:59N 34°53' E 139°47'  
2017-Nov-17 04:43N 33°60' E 135°01'313.3
2017-Nov-17 04:29N 34°03' E 135°00'713.1
2017-Nov-17 03:59N 34°09' E 134°60'2111.9
2017-Nov-17 02:14N 34°28' E 135°12'312.5
2017-Nov-17 01:58N 34°29' E 135°15'612.8
2017-Nov-17 01:30N 34°32' E 135°21'3 1.2
2017-Nov-16 22:41N 34°32' E 135°25'0 0.8
2017-Nov-16 22:30N 34°33' E 135°25'510.0
2017-Nov-16 21:59N 34°36' E 135°20'4 8.7
2017-Nov-16 21:30N 34°40' E 135°22'0 0.1
2017-Nov-16 21:00N 34°40' E 135°22'0 0.0
2017-Nov-16 20:30N 34°40' E 135°22'0 0.0
2017-Nov-16 20:00N 34°40' E 135°22'0 0.0
2017-Nov-16 19:30N 34°40' E 135°22'0 0.0
2017-Nov-16 19:00N 34°40' E 135°22'0 0.0
2017-Nov-16 18:30N 34°40' E 135°22'0 0.0
2017-Nov-16 18:00N 34°40' E 135°22'0 0.0
2017-Nov-16 17:30N 34°40' E 135°22'0 0.0
2017-Nov-16 17:00N 34°40' E 135°22'0 0.0
2017-Nov-16 16:30N 34°40' E 135°22'0 0.0
2017-Nov-16 16:00N 34°40' E 135°22'0 0.0
2017-Nov-16 15:30N 34°40' E 135°22'0 0.0
2017-Nov-16 15:00N 34°40' E 135°22'0 0.0
2017-Nov-16 14:30N 34°40' E 135°22'0 0.0
2017-Nov-16 14:00N 34°40' E 135°22'0 0.0
2017-Nov-16 13:30N 34°40' E 135°22'0 0.0
2017-Nov-16 13:00N 34°40' E 135°22'0 0.0
2017-Nov-16 12:30N 34°40' E 135°22'0 0.0
2017-Nov-16 12:00N 34°40' E 135°22'0 0.0
2017-Nov-16 11:30N 34°40' E 135°22'0 0.0
2017-Nov-16 11:00N 34°40' E 135°22'0 0.0
2017-Nov-16 10:30N 34°40' E 135°22'0 0.0
2017-Nov-16 10:00N 34°40' E 135°22'0 0.0
2017-Nov-16 09:30N 34°40' E 135°22'0 0.0
2017-Nov-16 09:00N 34°40' E 135°22'0 0.0
2017-Nov-16 08:30N 34°40' E 135°22'0 0.1
2017-Nov-16 08:00N 34°40' E 135°22'0 0.1
2017-Nov-16 07:29N 34°40' E 135°22'0 0.0
2017-Nov-16 06:58N 34°40' E 135°22'0 0.0
2017-Nov-16 06:30N 34°40' E 135°22'0 0.0
2017-Nov-16 06:00N 34°40' E 135°22'0 0.0
2017-Nov-16 05:30N 34°40' E 135°22'0 0.0
2017-Nov-16 04:58N 34°40' E 135°22'0 0.0
2017-Nov-16 04:30N 34°40' E 135°22'0 0.0
2017-Nov-16 04:00N 34°40' E 135°22'0 0.0
2017-Nov-16 03:31N 34°40' E 135°22'0 0.0
2017-Nov-16 03:00N 34°40' E 135°22'0 0.0
2017-Nov-16 02:30N 34°40' E 135°22'0 0.0
2017-Nov-16 02:00N 34°40' E 135°22'0 0.0
2017-Nov-16 01:30N 34°40' E 135°22'0 0.0
2017-Nov-16 01:00N 34°40' E 135°22'0 0.0
2017-Nov-16 00:30N 34°40' E 135°22'0 0.0
2017-Nov-16 00:00N 34°40' E 135°22'0 0.0
2017-Nov-15 23:30N 34°40' E 135°22'0 0.0
2017-Nov-15 23:00N 34°40' E 135°22'0 0.0
2017-Nov-15 22:30N 34°40' E 135°22'0 0.0
2017-Nov-15 22:00N 34°40' E 135°22'0 0.0
2017-Nov-15 21:30N 34°40' E 135°22'0 0.0
2017-Nov-15 21:00N 34°40' E 135°22'0 0.0
2017-Nov-15 20:29N 34°40' E 135°22'0 0.0
2017-Nov-15 20:00N 34°40' E 135°22'0 0.0
2017-Nov-15 19:30N 34°40' E 135°22'0 0.0
2017-Nov-15 19:00N 34°40' E 135°22'0 0.0
2017-Nov-15 18:30N 34°40' E 135°22'0 0.0
2017-Nov-15 18:00N 34°40' E 135°22'0 0.0
2017-Nov-15 17:30N 34°40' E 135°22'0 0.0
2017-Nov-15 17:00N 34°40' E 135°22'0 0.0
2017-Nov-15 16:30N 34°40' E 135°22'0 0.0
2017-Nov-15 16:00N 34°40' E 135°22'0 0.0
2017-Nov-15 15:30N 34°40' E 135°22'0 0.0
2017-Nov-15 15:00N 34°40' E 135°22'0 0.0
2017-Nov-15 14:30N 34°40' E 135°22'0 0.0
2017-Nov-15 14:00N 34°40' E 135°22'0 0.1
2017-Nov-15 13:30N 34°40' E 135°22'0 0.1
2017-Nov-15 13:00N 34°40' E 135°22'0 0.0
2017-Nov-15 12:30N 34°40' E 135°22'0 0.0
2017-Nov-15 12:00N 34°40' E 135°22'0 0.0
2017-Nov-15 11:30N 34°40' E 135°22'0 0.0
2017-Nov-15 11:00N 34°40' E 135°22'0 0.0
2017-Nov-15 10:30N 34°40' E 135°22'3 6.8
2017-Nov-15 10:00N 34°37' E 135°19'612.2
2017-Nov-15 09:30N 34°32' E 135°14'612.5
2017-Nov-15 09:00N 34°27' E 135°09'713.0
2017-Nov-15 08:29N 34°22' E 135°04'812.6
2017-Nov-15 07:50N 34°15' E 134°59'412.2
2017-Nov-15 07:31N 34°11' E 134°60'712.0
2017-Nov-15 06:58N 34°05' E 135°00'20810.0
2017-Nov-14 10:03N 34°48' E 139°07'212.8
2017-Nov-14 09:52N 34°50' E 139°09'1812.2
2017-Nov-14 08:25N 35°01' E 139°26'512.2
2017-Nov-14 08:00N 35°03' E 139°31'612.4
2017-Nov-14 07:30N 35°06' E 139°38'612.3
2017-Nov-14 07:00N 35°10' E 139°44'612.5
2017-Nov-14 06:31N 35°16' E 139°46'612.9
2017-Nov-14 06:00N 35°22' E 139°42'612.0
2017-Nov-14 05:30N 35°27' E 139°47'713.0
2017-Nov-14 04:58N 35°30' E 139°54'7 1.8
2017-Nov-14 00:58N 35°31' E 140°03'  
Track history (hours):
 
Tides and Currents Weather Stations Pressure Air Temp Water Temp Dewpoint Dewpoint Depression Visibility Wind Speed Wind Dir Waves Ship Positions

Tokuyo Maru No.17

Last reported at 2017-Nov-23 15:01 UTC. Time now 2017-Nov-23 15:21 UTC.
Position N 35°29' E 139°56'.

Length 67 m; draft 4.5 m.

Type: Tanker. MMSI: 431009496.

Date/timePositionNaut miles runAvg speedWind from/ knotsBaromVisibWave heightAir tempDewpointWater temp
2017-Nov-23 15:01N 35°29' E 139°56'0 0.0
2017-Nov-23 14:31N 35°29' E 139°56'0 0.0
2017-Nov-23 14:00N 35°29' E 139°56'0 0.0
2017-Nov-23 13:30N 35°29' E 139°56'0 0.0
2017-Nov-23 13:00N 35°29' E 139°56'0 0.0
2017-Nov-23 12:30N 35°29' E 139°56'0 0.0
2017-Nov-23 12:00N 35°29' E 139°56'0 0.0
2017-Nov-23 11:30N 35°29' E 139°56'0 0.0
2017-Nov-23 11:01N 35°29' E 139°56'0 0.0
2017-Nov-23 10:30N 35°29' E 139°56'0 0.0
2017-Nov-23 10:01N 35°29' E 139°56'0 0.0
2017-Nov-23 09:31N 35°29' E 139°56'0 0.1
2017-Nov-23 09:00N 35°29' E 139°56'0 0.0
2017-Nov-23 08:30N 35°29' E 139°56'0 0.0
2017-Nov-23 08:00N 35°29' E 139°56'0 0.0
2017-Nov-23 07:30N 35°29' E 139°56'0 0.1
2017-Nov-23 06:36N 35°29' E 139°56'0 0.3
2017-Nov-23 06:26N 35°29' E 139°56'0 0.0
2017-Nov-23 06:00N 35°29' E 139°56'0 0.0
2017-Nov-23 05:30N 35°29' E 139°56'0 0.0
2017-Nov-23 05:00N 35°29' E 139°56'0 0.0
2017-Nov-23 04:30N 35°29' E 139°56'0 0.0
2017-Nov-23 04:00N 35°29' E 139°56'0 0.0
2017-Nov-23 03:30N 35°29' E 139°56'0 0.0
2017-Nov-23 02:58N 35°29' E 139°56'0 0.1
2017-Nov-23 02:31N 35°29' E 139°56'0 0.0
2017-Nov-23 02:00N 35°29' E 139°56'0 0.1
2017-Nov-23 01:24N 35°29' E 139°56'0 0.0
2017-Nov-23 01:01N 35°29' E 139°56'0 0.0
2017-Nov-23 00:31N 35°29' E 139°56'0 0.0
2017-Nov-23 00:01N 35°29' E 139°56'0 0.0
2017-Nov-22 23:31N 35°29' E 139°56'0 0.0
2017-Nov-22 23:00N 35°29' E 139°56'0 0.0
2017-Nov-22 22:30N 35°29' E 139°56'0 0.0
2017-Nov-22 22:00N 35°29' E 139°56'0 0.0
2017-Nov-22 21:30N 35°29' E 139°56'0 0.0
2017-Nov-22 21:01N 35°29' E 139°56'0 0.0
2017-Nov-22 20:30N 35°29' E 139°56'0 0.0
2017-Nov-22 20:00N 35°29' E 139°56'0 0.0
2017-Nov-22 19:30N 35°29' E 139°56'  
2017-Nov-20 00:28N 35°29' E 140°01'0 0.0
2017-Nov-19 23:59N 35°29' E 140°01'0 0.1
2017-Nov-19 23:30N 35°29' E 140°01'3 5.7
2017-Nov-19 23:00N 35°29' E 139°57'2 3.1
2017-Nov-19 22:30N 35°29' E 139°56'0 0.0
2017-Nov-19 22:00N 35°29' E 139°56'0 0.0
2017-Nov-19 21:30N 35°29' E 139°56'0 0.0
2017-Nov-19 21:00N 35°29' E 139°56'0 0.0
2017-Nov-19 20:30N 35°29' E 139°56'0 0.0
2017-Nov-19 20:00N 35°29' E 139°56'0 0.0
2017-Nov-19 19:30N 35°29' E 139°56'0 0.0
2017-Nov-19 19:00N 35°29' E 139°56'0 0.0
2017-Nov-19 18:30N 35°29' E 139°56'0 0.0
2017-Nov-19 18:00N 35°29' E 139°56'0 0.0
2017-Nov-19 17:30N 35°29' E 139°56'0 0.0
2017-Nov-19 17:00N 35°29' E 139°56'0 0.0
2017-Nov-19 16:30N 35°29' E 139°56'0 0.1
2017-Nov-19 16:00N 35°29' E 139°56'0 0.1
2017-Nov-19 15:30N 35°29' E 139°56'0 0.0
2017-Nov-19 15:00N 35°29' E 139°56'3 6.6
2017-Nov-19 14:30N 35°28' E 139°52'611.8
2017-Nov-19 14:00N 35°24' E 139°46'611.5
2017-Nov-19 13:30N 35°19' E 139°44'510.6
2017-Nov-19 13:00N 35°14' E 139°47'510.6
2017-Nov-19 12:30N 35°09' E 139°46'611.5
2017-Nov-19 12:00N 35°03' E 139°45'611.2
2017-Nov-19 11:30N 34°58' E 139°44'611.0
2017-Nov-19 10:59N 34°53' E 139°47'  
2017-Nov-17 04:43N 33°60' E 135°01'313.3
2017-Nov-17 04:29N 34°03' E 135°00'713.1
2017-Nov-17 03:59N 34°09' E 134°60'2111.9
2017-Nov-17 02:14N 34°28' E 135°12'312.5
2017-Nov-17 01:58N 34°29' E 135°15'612.8
2017-Nov-17 01:30N 34°32' E 135°21'3 1.2
2017-Nov-16 22:41N 34°32' E 135°25'0 0.8
2017-Nov-16 22:30N 34°33' E 135°25'510.0
2017-Nov-16 21:59N 34°36' E 135°20'4 8.7
2017-Nov-16 21:30N 34°40' E 135°22'0 0.1
2017-Nov-16 21:00N 34°40' E 135°22'0 0.0
2017-Nov-16 20:30N 34°40' E 135°22'0 0.0
2017-Nov-16 20:00N 34°40' E 135°22'0 0.0
2017-Nov-16 19:30N 34°40' E 135°22'0 0.0
2017-Nov-16 19:00N 34°40' E 135°22'0 0.0
2017-Nov-16 18:30N 34°40' E 135°22'0 0.0
2017-Nov-16 18:00N 34°40' E 135°22'0 0.0
2017-Nov-16 17:30N 34°40' E 135°22'0 0.0
2017-Nov-16 17:00N 34°40' E 135°22'0 0.0
2017-Nov-16 16:30N 34°40' E 135°22'0 0.0
2017-Nov-16 16:00N 34°40' E 135°22'0 0.0
2017-Nov-16 15:30N 34°40' E 135°22'0 0.0
2017-Nov-16 15:00N 34°40' E 135°22'0 0.0
2017-Nov-16 14:30N 34°40' E 135°22'0 0.0
2017-Nov-16 14:00N 34°40' E 135°22'0 0.0
2017-Nov-16 13:30N 34°40' E 135°22'0 0.0
2017-Nov-16 13:00N 34°40' E 135°22'0 0.0
2017-Nov-16 12:30N 34°40' E 135°22'0 0.0
2017-Nov-16 12:00N 34°40' E 135°22'0 0.0
2017-Nov-16 11:30N 34°40' E 135°22'0 0.0
2017-Nov-16 11:00N 34°40' E 135°22'0 0.0
2017-Nov-16 10:30N 34°40' E 135°22'0 0.0
2017-Nov-16 10:00N 34°40' E 135°22'0 0.0
2017-Nov-16 09:30N 34°40' E 135°22'0 0.0
2017-Nov-16 09:00N 34°40' E 135°22'0 0.0
2017-Nov-16 08:30N 34°40' E 135°22'0 0.1
2017-Nov-16 08:00N 34°40' E 135°22'0 0.1
2017-Nov-16 07:29N 34°40' E 135°22'0 0.0
2017-Nov-16 06:58N 34°40' E 135°22'0 0.0
2017-Nov-16 06:30N 34°40' E 135°22'0 0.0
2017-Nov-16 06:00N 34°40' E 135°22'0 0.0
2017-Nov-16 05:30N 34°40' E 135°22'0 0.0
2017-Nov-16 04:58N 34°40' E 135°22'0 0.0
2017-Nov-16 04:30N 34°40' E 135°22'0 0.0
2017-Nov-16 04:00N 34°40' E 135°22'0 0.0
2017-Nov-16 03:31N 34°40' E 135°22'0 0.0
2017-Nov-16 03:00N 34°40' E 135°22'0 0.0
2017-Nov-16 02:30N 34°40' E 135°22'0 0.0
2017-Nov-16 02:00N 34°40' E 135°22'0 0.0
2017-Nov-16 01:30N 34°40' E 135°22'0 0.0
2017-Nov-16 01:00N 34°40' E 135°22'0 0.0
2017-Nov-16 00:30N 34°40' E 135°22'0 0.0
2017-Nov-16 00:00N 34°40' E 135°22'0 0.0
2017-Nov-15 23:30N 34°40' E 135°22'0 0.0
2017-Nov-15 23:00N 34°40' E 135°22'0 0.0
2017-Nov-15 22:30N 34°40' E 135°22'0 0.0
2017-Nov-15 22:00N 34°40' E 135°22'0 0.0
2017-Nov-15 21:30N 34°40' E 135°22'0 0.0
2017-Nov-15 21:00N 34°40' E 135°22'0 0.0
2017-Nov-15 20:29N 34°40' E 135°22'0 0.0
2017-Nov-15 20:00N 34°40' E 135°22'0 0.0
2017-Nov-15 19:30N 34°40' E 135°22'0 0.0
2017-Nov-15 19:00N 34°40' E 135°22'0 0.0
2017-Nov-15 18:30N 34°40' E 135°22'0 0.0
2017-Nov-15 18:00N 34°40' E 135°22'0 0.0
2017-Nov-15 17:30N 34°40' E 135°22'0 0.0
2017-Nov-15 17:00N 34°40' E 135°22'0 0.0
2017-Nov-15 16:30N 34°40' E 135°22'0 0.0
2017-Nov-15 16:00N 34°40' E 135°22'0 0.0
2017-Nov-15 15:30N 34°40' E 135°22'0 0.0
2017-Nov-15 15:00N 34°40' E 135°22'0 0.0
2017-Nov-15 14:30N 34°40' E 135°22'0 0.0
2017-Nov-15 14:00N 34°40' E 135°22'0 0.1
2017-Nov-15 13:30N 34°40' E 135°22'0 0.1
2017-Nov-15 13:00N 34°40' E 135°22'0 0.0
2017-Nov-15 12:30N 34°40' E 135°22'0 0.0
2017-Nov-15 12:00N 34°40' E 135°22'0 0.0
2017-Nov-15 11:30N 34°40' E 135°22'0 0.0
2017-Nov-15 11:00N 34°40' E 135°22'0 0.0
2017-Nov-15 10:30N 34°40' E 135°22'3 6.8
2017-Nov-15 10:00N 34°37' E 135°19'612.2
2017-Nov-15 09:30N 34°32' E 135°14'612.5
2017-Nov-15 09:00N 34°27' E 135°09'713.0
2017-Nov-15 08:29N 34°22' E 135°04'812.6
2017-Nov-15 07:50N 34°15' E 134°59'412.2
2017-Nov-15 07:31N 34°11' E 134°60'712.0
2017-Nov-15 06:58N 34°05' E 135°00'20810.0
2017-Nov-14 10:03N 34°48' E 139°07'212.8
2017-Nov-14 09:52N 34°50' E 139°09'1812.2
2017-Nov-14 08:25N 35°01' E 139°26'512.2
2017-Nov-14 08:00N 35°03' E 139°31'612.4
2017-Nov-14 07:30N 35°06' E 139°38'612.3
2017-Nov-14 07:00N 35°10' E 139°44'612.5
2017-Nov-14 06:31N 35°16' E 139°46'612.9
2017-Nov-14 06:00N 35°22' E 139°42'612.0
2017-Nov-14 05:30N 35°27' E 139°47'713.0
2017-Nov-14 04:58N 35°30' E 139°54'7 1.8
2017-Nov-14 00:58N 35°31' E 140°03'  

Dump ship's entire track history